sensor_id;sensor_type;location;lat;lon;timestamp;P1;durP1;ratioP1;P2;durP2;ratioP2
2998;SDS011;1509;51.964;7.628;2022-07-19T00:01:55;9.50;;;5.77;;
2998;SDS011;1509;51.964;7.628;2022-07-19T00:04:21;9.53;;;6.00;;
2998;SDS011;1509;51.964;7.628;2022-07-19T00:06:47;11.80;;;5.97;;
2998;SDS011;1509;51.964;7.628;2022-07-19T00:09:14;13.47;;;6.23;;
2998;SDS011;1509;51.964;7.628;2022-07-19T00:11:39;9.83;;;6.00;;
2998;SDS011;1509;51.964;7.628;2022-07-19T00:14:05;8.40;;;5.83;;
2998;SDS011;1509;51.964;7.628;2022-07-19T00:16:31;8.10;;;5.73;;
2998;SDS011;1509;51.964;7.628;2022-07-19T00:18:56;8.23;;;6.47;;
2998;SDS011;1509;51.964;7.628;2022-07-19T00:21:22;7.33;;;5.60;;
2998;SDS011;1509;51.964;7.628;2022-07-19T00:23:48;7.40;;;5.40;;
2998;SDS011;1509;51.964;7.628;2022-07-19T00:26:13;8.17;;;6.10;;
2998;SDS011;1509;51.964;7.628;2022-07-19T00:28:39;13.97;;;5.90;;
2998;SDS011;1509;51.964;7.628;2022-07-19T00:31:04;10.40;;;5.73;;
2998;SDS011;1509;51.964;7.628;2022-07-19T00:33:30;11.07;;;5.47;;
2998;SDS011;1509;51.964;7.628;2022-07-19T00:35:56;11.60;;;6.20;;
2998;SDS011;1509;51.964;7.628;2022-07-19T00:38:21;10.17;;;6.23;;
2998;SDS011;1509;51.964;7.628;2022-07-19T00:40:47;8.37;;;6.03;;
2998;SDS011;1509;51.964;7.628;2022-07-19T00:43:13;8.37;;;5.40;;
2998;SDS011;1509;51.964;7.628;2022-07-19T00:45:38;8.77;;;5.70;;
2998;SDS011;1509;51.964;7.628;2022-07-19T00:48:04;13.57;;;5.87;;
2998;SDS011;1509;51.964;7.628;2022-07-19T00:50:31;7.90;;;5.23;;
2998;SDS011;1509;51.964;7.628;2022-07-19T00:52:58;7.07;;;5.20;;
2998;SDS011;1509;51.964;7.628;2022-07-19T00:55:26;7.57;;;4.37;;
2998;SDS011;1509;51.964;7.628;2022-07-19T00:57:53;8.43;;;6.07;;
2998;SDS011;1509;51.964;7.628;2022-07-19T01:00:21;7.60;;;4.80;;
2998;SDS011;1509;51.964;7.628;2022-07-19T01:02:48;7.80;;;5.50;;
2998;SDS011;1509;51.964;7.628;2022-07-19T01:05:15;8.23;;;5.10;;
2998;SDS011;1509;51.964;7.628;2022-07-19T01:07:41;7.80;;;5.40;;
2998;SDS011;1509;51.964;7.628;2022-07-19T01:10:07;9.20;;;5.57;;
2998;SDS011;1509;51.964;7.628;2022-07-19T01:12:35;7.27;;;5.67;;
2998;SDS011;1509;51.964;7.628;2022-07-19T01:15:02;7.43;;;5.03;;
2998;SDS011;1509;51.964;7.628;2022-07-19T01:17:37;9.17;;;5.67;;
2998;SDS011;1509;51.964;7.628;2022-07-19T01:20:03;11.93;;;6.20;;
2998;SDS011;1509;51.964;7.628;2022-07-19T01:22:29;7.83;;;6.47;;
2998;SDS011;1509;51.964;7.628;2022-07-19T01:24:57;9.70;;;5.10;;
2998;SDS011;1509;51.964;7.628;2022-07-19T01:27:23;5.63;;;4.70;;
2998;SDS011;1509;51.964;7.628;2022-07-19T01:29:48;7.33;;;5.70;;
2998;SDS011;1509;51.964;7.628;2022-07-19T01:32:14;6.10;;;4.73;;
2998;SDS011;1509;51.964;7.628;2022-07-19T01:34:39;7.07;;;5.50;;
2998;SDS011;1509;51.964;7.628;2022-07-19T01:37:05;9.20;;;5.30;;
2998;SDS011;1509;51.964;7.628;2022-07-19T01:39:30;7.20;;;6.00;;
2998;SDS011;1509;51.964;7.628;2022-07-19T01:41:56;7.90;;;4.80;;
2998;SDS011;1509;51.964;7.628;2022-07-19T01:44:22;7.90;;;4.50;;
2998;SDS011;1509;51.964;7.628;2022-07-19T01:46:47;6.87;;;4.93;;
2998;SDS011;1509;51.964;7.628;2022-07-19T01:49:13;8.90;;;5.40;;
2998;SDS011;1509;51.964;7.628;2022-07-19T01:51:38;6.67;;;5.20;;
2998;SDS011;1509;51.964;7.628;2022-07-19T01:54:04;7.47;;;4.83;;
2998;SDS011;1509;51.964;7.628;2022-07-19T01:56:29;7.30;;;4.70;;
2998;SDS011;1509;51.964;7.628;2022-07-19T01:58:55;8.07;;;5.50;;
2998;SDS011;1509;51.964;7.628;2022-07-19T02:01:20;7.07;;;4.83;;
2998;SDS011;1509;51.964;7.628;2022-07-19T02:03:46;19.03;;;5.50;;
2998;SDS011;1509;51.964;7.628;2022-07-19T02:06:12;6.87;;;4.73;;
2998;SDS011;1509;51.964;7.628;2022-07-19T02:08:37;6.93;;;4.50;;
2998;SDS011;1509;51.964;7.628;2022-07-19T02:11:05;7.00;;;5.20;;
2998;SDS011;1509;51.964;7.628;2022-07-19T02:13:50;6.70;;;5.30;;
2998;SDS011;1509;51.964;7.628;2022-07-19T02:16:15;6.30;;;4.70;;
2998;SDS011;1509;51.964;7.628;2022-07-19T02:18:41;9.03;;;5.50;;
2998;SDS011;1509;51.964;7.628;2022-07-19T02:21:07;7.20;;;5.20;;
2998;SDS011;1509;51.964;7.628;2022-07-19T02:23:35;8.23;;;5.97;;
2998;SDS011;1509;51.964;7.628;2022-07-19T02:26:01;7.50;;;5.50;;
2998;SDS011;1509;51.964;7.628;2022-07-19T02:28:27;6.43;;;5.00;;
2998;SDS011;1509;51.964;7.628;2022-07-19T02:30:52;7.63;;;5.10;;
2998;SDS011;1509;51.964;7.628;2022-07-19T02:33:18;7.40;;;5.30;;
2998;SDS011;1509;51.964;7.628;2022-07-19T02:35:43;7.13;;;5.20;;
2998;SDS011;1509;51.964;7.628;2022-07-19T02:38:09;7.87;;;5.00;;
2998;SDS011;1509;51.964;7.628;2022-07-19T02:40:35;6.03;;;5.13;;
2998;SDS011;1509;51.964;7.628;2022-07-19T02:43:00;7.90;;;5.40;;
2998;SDS011;1509;51.964;7.628;2022-07-19T02:45:26;9.33;;;5.53;;
2998;SDS011;1509;51.964;7.628;2022-07-19T02:47:51;7.40;;;4.80;;
2998;SDS011;1509;51.964;7.628;2022-07-19T02:50:17;7.27;;;5.00;;
2998;SDS011;1509;51.964;7.628;2022-07-19T02:52:43;11.20;;;4.90;;
2998;SDS011;1509;51.964;7.628;2022-07-19T02:55:08;6.73;;;4.43;;
2998;SDS011;1509;51.964;7.628;2022-07-19T02:57:34;6.10;;;5.00;;
2998;SDS011;1509;51.964;7.628;2022-07-19T03:00:00;7.57;;;5.77;;
2998;SDS011;1509;51.964;7.628;2022-07-19T03:02:25;6.83;;;4.73;;
2998;SDS011;1509;51.964;7.628;2022-07-19T03:04:51;6.80;;;4.10;;
2998;SDS011;1509;51.964;7.628;2022-07-19T03:07:17;5.10;;;4.10;;
2998;SDS011;1509;51.964;7.628;2022-07-19T03:09:42;7.90;;;4.50;;
2998;SDS011;1509;51.964;7.628;2022-07-19T03:12:08;8.37;;;4.33;;
2998;SDS011;1509;51.964;7.628;2022-07-19T03:14:34;7.90;;;4.30;;
2998;SDS011;1509;51.964;7.628;2022-07-19T03:16:59;6.50;;;4.70;;
2998;SDS011;1509;51.964;7.628;2022-07-19T03:19:25;8.17;;;4.00;;
2998;SDS011;1509;51.964;7.628;2022-07-19T03:21:51;5.90;;;5.30;;
2998;SDS011;1509;51.964;7.628;2022-07-19T03:24:18;6.10;;;4.40;;
2998;SDS011;1509;51.964;7.628;2022-07-19T03:26:44;6.67;;;4.30;;
2998;SDS011;1509;51.964;7.628;2022-07-19T03:29:09;10.83;;;5.10;;
2998;SDS011;1509;51.964;7.628;2022-07-19T03:31:35;6.13;;;4.70;;
2998;SDS011;1509;51.964;7.628;2022-07-19T03:34:01;6.60;;;5.30;;
2998;SDS011;1509;51.964;7.628;2022-07-19T03:36:26;5.53;;;4.10;;
2998;SDS011;1509;51.964;7.628;2022-07-19T03:38:52;5.53;;;4.50;;
2998;SDS011;1509;51.964;7.628;2022-07-19T03:41:18;8.63;;;5.20;;
2998;SDS011;1509;51.964;7.628;2022-07-19T03:43:47;6.60;;;4.87;;
2998;SDS011;1509;51.964;7.628;2022-07-19T03:46:13;5.30;;;4.40;;
2998;SDS011;1509;51.964;7.628;2022-07-19T03:48:38;6.50;;;4.73;;
2998;SDS011;1509;51.964;7.628;2022-07-19T03:51:04;9.70;;;5.00;;
2998;SDS011;1509;51.964;7.628;2022-07-19T03:53:30;8.40;;;5.67;;
2998;SDS011;1509;51.964;7.628;2022-07-19T03:55:55;8.30;;;5.40;;
2998;SDS011;1509;51.964;7.628;2022-07-19T03:58:21;7.10;;;5.23;;
2998;SDS011;1509;51.964;7.628;2022-07-19T04:00:47;5.97;;;4.73;;
2998;SDS011;1509;51.964;7.628;2022-07-19T04:03:12;8.13;;;4.80;;
2998;SDS011;1509;51.964;7.628;2022-07-19T04:05:38;5.47;;;4.67;;
2998;SDS011;1509;51.964;7.628;2022-07-19T04:08:04;9.13;;;5.30;;
2998;SDS011;1509;51.964;7.628;2022-07-19T04:10:29;8.23;;;5.23;;
2998;SDS011;1509;51.964;7.628;2022-07-19T04:12:55;6.70;;;4.50;;
2998;SDS011;1509;51.964;7.628;2022-07-19T04:15:20;9.37;;;4.97;;
2998;SDS011;1509;51.964;7.628;2022-07-19T04:17:46;7.93;;;5.27;;
2998;SDS011;1509;51.964;7.628;2022-07-19T04:20:12;7.97;;;5.10;;
2998;SDS011;1509;51.964;7.628;2022-07-19T04:22:37;8.83;;;4.80;;
2998;SDS011;1509;51.964;7.628;2022-07-19T04:25:06;8.70;;;5.27;;
2998;SDS011;1509;51.964;7.628;2022-07-19T04:27:33;9.80;;;5.60;;
2998;SDS011;1509;51.964;7.628;2022-07-19T04:29:58;6.33;;;4.77;;
2998;SDS011;1509;51.964;7.628;2022-07-19T04:32:24;5.70;;;4.73;;
2998;SDS011;1509;51.964;7.628;2022-07-19T04:34:49;6.40;;;4.63;;
2998;SDS011;1509;51.964;7.628;2022-07-19T04:37:15;7.03;;;5.17;;
2998;SDS011;1509;51.964;7.628;2022-07-19T04:39:41;5.70;;;4.70;;
2998;SDS011;1509;51.964;7.628;2022-07-19T04:42:07;6.60;;;4.43;;
2998;SDS011;1509;51.964;7.628;2022-07-19T04:44:32;6.53;;;4.43;;
2998;SDS011;1509;51.964;7.628;2022-07-19T04:46:59;7.97;;;5.83;;
2998;SDS011;1509;51.964;7.628;2022-07-19T04:49:24;7.43;;;4.77;;
2998;SDS011;1509;51.964;7.628;2022-07-19T04:51:50;8.00;;;4.27;;
2998;SDS011;1509;51.964;7.628;2022-07-19T04:54:16;9.47;;;6.00;;
2998;SDS011;1509;51.964;7.628;2022-07-19T04:56:41;7.63;;;4.83;;
2998;SDS011;1509;51.964;7.628;2022-07-19T04:59:07;10.77;;;5.40;;
2998;SDS011;1509;51.964;7.628;2022-07-19T05:01:33;10.00;;;4.80;;
2998;SDS011;1509;51.964;7.628;2022-07-19T05:03:59;7.63;;;5.10;;
2998;SDS011;1509;51.964;7.628;2022-07-19T05:06:25;8.63;;;5.40;;
2998;SDS011;1509;51.964;7.628;2022-07-19T05:08:51;7.73;;;5.40;;
2998;SDS011;1509;51.964;7.628;2022-07-19T05:11:17;5.07;;;4.57;;
2998;SDS011;1509;51.964;7.628;2022-07-19T05:13:43;7.57;;;5.17;;
2998;SDS011;1509;51.964;7.628;2022-07-19T05:16:09;6.90;;;4.90;;
2998;SDS011;1509;51.964;7.628;2022-07-19T05:18:35;6.03;;;5.13;;
2998;SDS011;1509;51.964;7.628;2022-07-19T05:21:01;7.50;;;4.90;;
2998;SDS011;1509;51.964;7.628;2022-07-19T05:23:26;11.80;;;5.50;;
2998;SDS011;1509;51.964;7.628;2022-07-19T05:25:52;6.60;;;4.83;;
2998;SDS011;1509;51.964;7.628;2022-07-19T05:28:18;7.30;;;5.07;;
2998;SDS011;1509;51.964;7.628;2022-07-19T05:30:43;6.03;;;4.80;;
2998;SDS011;1509;51.964;7.628;2022-07-19T05:33:09;13.03;;;5.13;;
2998;SDS011;1509;51.964;7.628;2022-07-19T05:35:35;4.87;;;4.20;;
2998;SDS011;1509;51.964;7.628;2022-07-19T05:38:00;9.30;;;4.60;;
2998;SDS011;1509;51.964;7.628;2022-07-19T05:40:26;8.30;;;4.93;;
2998;SDS011;1509;51.964;7.628;2022-07-19T05:42:52;8.00;;;4.87;;
2998;SDS011;1509;51.964;7.628;2022-07-19T05:45:17;17.00;;;6.60;;
2998;SDS011;1509;51.964;7.628;2022-07-19T05:47:43;8.90;;;4.80;;
2998;SDS011;1509;51.964;7.628;2022-07-19T05:50:08;6.13;;;5.23;;
2998;SDS011;1509;51.964;7.628;2022-07-19T05:52:34;8.23;;;4.90;;
2998;SDS011;1509;51.964;7.628;2022-07-19T05:55:00;10.43;;;4.00;;
2998;SDS011;1509;51.964;7.628;2022-07-19T05:57:25;7.77;;;4.60;;
2998;SDS011;1509;51.964;7.628;2022-07-19T05:59:51;6.27;;;4.40;;
2998;SDS011;1509;51.964;7.628;2022-07-19T06:02:18;10.23;;;4.47;;
2998;SDS011;1509;51.964;7.628;2022-07-19T06:04:44;8.03;;;3.87;;
2998;SDS011;1509;51.964;7.628;2022-07-19T06:07:10;5.47;;;3.90;;
2998;SDS011;1509;51.964;7.628;2022-07-19T06:09:35;5.87;;;4.57;;
2998;SDS011;1509;51.964;7.628;2022-07-19T06:12:01;7.30;;;4.07;;
2998;SDS011;1509;51.964;7.628;2022-07-19T06:14:27;8.03;;;4.43;;
2998;SDS011;1509;51.964;7.628;2022-07-19T06:16:52;8.50;;;3.73;;
2998;SDS011;1509;51.964;7.628;2022-07-19T06:19:19;7.10;;;4.67;;
2998;SDS011;1509;51.964;7.628;2022-07-19T06:21:45;5.53;;;4.20;;
2998;SDS011;1509;51.964;7.628;2022-07-19T06:24:11;6.83;;;3.73;;
2998;SDS011;1509;51.964;7.628;2022-07-19T06:26:37;6.70;;;4.40;;
2998;SDS011;1509;51.964;7.628;2022-07-19T06:29:02;9.67;;;5.17;;
2998;SDS011;1509;51.964;7.628;2022-07-19T06:31:29;6.73;;;4.00;;
2998;SDS011;1509;51.964;7.628;2022-07-19T06:33:54;10.30;;;4.50;;
2998;SDS011;1509;51.964;7.628;2022-07-19T06:36:20;6.80;;;4.60;;
2998;SDS011;1509;51.964;7.628;2022-07-19T06:38:46;6.90;;;5.10;;
2998;SDS011;1509;51.964;7.628;2022-07-19T06:41:13;7.23;;;4.47;;
2998;SDS011;1509;51.964;7.628;2022-07-19T06:43:40;7.40;;;4.40;;
2998;SDS011;1509;51.964;7.628;2022-07-19T06:46:06;9.20;;;4.17;;
2998;SDS011;1509;51.964;7.628;2022-07-19T06:48:31;7.27;;;3.97;;
2998;SDS011;1509;51.964;7.628;2022-07-19T06:50:57;6.50;;;4.63;;
2998;SDS011;1509;51.964;7.628;2022-07-19T06:53:23;9.03;;;3.70;;
2998;SDS011;1509;51.964;7.628;2022-07-19T06:55:49;3.50;;;3.13;;
2998;SDS011;1509;51.964;7.628;2022-07-19T06:58:15;7.60;;;3.80;;
2998;SDS011;1509;51.964;7.628;2022-07-19T07:00:40;5.47;;;3.43;;
2998;SDS011;1509;51.964;7.628;2022-07-19T07:03:06;6.30;;;2.90;;
2998;SDS011;1509;51.964;7.628;2022-07-19T07:05:32;4.20;;;3.10;;
2998;SDS011;1509;51.964;7.628;2022-07-19T07:08:01;4.80;;;2.87;;
2998;SDS011;1509;51.964;7.628;2022-07-19T07:10:26;5.83;;;3.03;;
2998;SDS011;1509;51.964;7.628;2022-07-19T07:12:52;5.80;;;3.90;;
2998;SDS011;1509;51.964;7.628;2022-07-19T07:15:18;7.63;;;3.37;;
2998;SDS011;1509;51.964;7.628;2022-07-19T07:17:43;5.13;;;3.00;;
2998;SDS011;1509;51.964;7.628;2022-07-19T07:20:09;8.70;;;3.70;;
2998;SDS011;1509;51.964;7.628;2022-07-19T07:22:36;8.20;;;3.60;;
2998;SDS011;1509;51.964;7.628;2022-07-19T07:25:02;11.40;;;4.23;;
2998;SDS011;1509;51.964;7.628;2022-07-19T07:27:29;7.50;;;4.20;;
2998;SDS011;1509;51.964;7.628;2022-07-19T07:29:55;7.43;;;3.30;;
2998;SDS011;1509;51.964;7.628;2022-07-19T07:32:20;7.67;;;3.00;;
2998;SDS011;1509;51.964;7.628;2022-07-19T07:34:46;6.80;;;3.70;;
2998;SDS011;1509;51.964;7.628;2022-07-19T07:37:12;6.00;;;3.30;;
2998;SDS011;1509;51.964;7.628;2022-07-19T07:39:38;9.23;;;3.00;;
2998;SDS011;1509;51.964;7.628;2022-07-19T07:42:04;5.40;;;3.70;;
2998;SDS011;1509;51.964;7.628;2022-07-19T07:44:30;4.10;;;2.80;;
2998;SDS011;1509;51.964;7.628;2022-07-19T07:46:56;11.77;;;3.43;;
2998;SDS011;1509;51.964;7.628;2022-07-19T07:49:22;5.80;;;3.17;;
2998;SDS011;1509;51.964;7.628;2022-07-19T07:51:51;7.60;;;3.20;;
2998;SDS011;1509;51.964;7.628;2022-07-19T07:54:16;7.27;;;3.70;;
2998;SDS011;1509;51.964;7.628;2022-07-19T07:56:42;3.77;;;2.97;;
2998;SDS011;1509;51.964;7.628;2022-07-19T07:59:08;6.03;;;3.00;;
2998;SDS011;1509;51.964;7.628;2022-07-19T08:01:34;7.33;;;2.80;;
2998;SDS011;1509;51.964;7.628;2022-07-19T08:04:00;5.30;;;3.60;;
2998;SDS011;1509;51.964;7.628;2022-07-19T08:06:26;6.40;;;3.13;;
2998;SDS011;1509;51.964;7.628;2022-07-19T08:08:51;4.60;;;3.20;;
2998;SDS011;1509;51.964;7.628;2022-07-19T08:11:17;5.87;;;2.73;;
2998;SDS011;1509;51.964;7.628;2022-07-19T08:13:43;3.40;;;2.70;;
2998;SDS011;1509;51.964;7.628;2022-07-19T08:16:08;6.17;;;3.10;;
2998;SDS011;1509;51.964;7.628;2022-07-19T08:18:34;3.60;;;2.90;;
2998;SDS011;1509;51.964;7.628;2022-07-19T08:21:00;3.70;;;2.53;;
2998;SDS011;1509;51.964;7.628;2022-07-19T08:23:25;7.13;;;2.90;;
2998;SDS011;1509;51.964;7.628;2022-07-19T08:25:51;6.23;;;2.83;;
2998;SDS011;1509;51.964;7.628;2022-07-19T08:28:17;5.40;;;2.90;;
2998;SDS011;1509;51.964;7.628;2022-07-19T08:30:43;5.50;;;3.53;;
2998;SDS011;1509;51.964;7.628;2022-07-19T08:33:08;4.20;;;2.60;;
2998;SDS011;1509;51.964;7.628;2022-07-19T08:35:35;6.27;;;2.87;;
2998;SDS011;1509;51.964;7.628;2022-07-19T08:38:01;6.13;;;2.67;;
2998;SDS011;1509;51.964;7.628;2022-07-19T08:40:26;4.17;;;2.60;;
2998;SDS011;1509;51.964;7.628;2022-07-19T08:42:53;5.57;;;2.53;;
2998;SDS011;1509;51.964;7.628;2022-07-19T08:45:22;8.23;;;3.40;;
2998;SDS011;1509;51.964;7.628;2022-07-19T08:47:48;4.10;;;2.80;;
2998;SDS011;1509;51.964;7.628;2022-07-19T08:50:14;5.10;;;2.73;;
2998;SDS011;1509;51.964;7.628;2022-07-19T08:52:40;6.30;;;2.77;;
2998;SDS011;1509;51.964;7.628;2022-07-19T08:55:07;4.17;;;2.90;;
2998;SDS011;1509;51.964;7.628;2022-07-19T08:57:35;4.33;;;2.63;;
2998;SDS011;1509;51.964;7.628;2022-07-19T09:00:19;4.83;;;2.67;;
2998;SDS011;1509;51.964;7.628;2022-07-19T09:02:52;3.80;;;2.67;;
2998;SDS011;1509;51.964;7.628;2022-07-19T09:05:22;4.43;;;2.70;;
2998;SDS011;1509;51.964;7.628;2022-07-19T09:08:05;4.30;;;3.03;;
2998;SDS011;1509;51.964;7.628;2022-07-19T09:10:39;7.83;;;3.60;;
2998;SDS011;1509;51.964;7.628;2022-07-19T09:13:09;4.80;;;3.50;;
2998;SDS011;1509;51.964;7.628;2022-07-19T09:15:39;3.50;;;2.50;;
2998;SDS011;1509;51.964;7.628;2022-07-19T09:20:49;8.73;;;2.73;;
2998;SDS011;1509;51.964;7.628;2022-07-19T09:23:18;4.63;;;2.20;;
2998;SDS011;1509;51.964;7.628;2022-07-19T09:25:44;5.30;;;3.10;;
2998;SDS011;1509;51.964;7.628;2022-07-19T09:28:13;5.43;;;3.10;;
2998;SDS011;1509;51.964;7.628;2022-07-19T09:30:40;11.03;;;3.30;;
2998;SDS011;1509;51.964;7.628;2022-07-19T09:33:09;4.57;;;2.17;;
2998;SDS011;1509;51.964;7.628;2022-07-19T09:35:50;4.20;;;2.27;;
2998;SDS011;1509;51.964;7.628;2022-07-19T09:41:09;3.27;;;2.27;;
2998;SDS011;1509;51.964;7.628;2022-07-19T09:46:34;4.33;;;2.37;;
2998;SDS011;1509;51.964;7.628;2022-07-19T09:49:11;6.70;;;2.87;;
2998;SDS011;1509;51.964;7.628;2022-07-19T09:54:12;4.57;;;2.27;;
2998;SDS011;1509;51.964;7.628;2022-07-19T09:56:40;4.30;;;2.30;;
2998;SDS011;1509;51.964;7.628;2022-07-19T09:59:08;4.50;;;2.10;;
2998;SDS011;1509;51.964;7.628;2022-07-19T10:01:34;2.80;;;2.60;;
2998;SDS011;1509;51.964;7.628;2022-07-19T10:04:06;3.40;;;2.50;;
2998;SDS011;1509;51.964;7.628;2022-07-19T10:06:35;6.73;;;3.00;;
2998;SDS011;1509;51.964;7.628;2022-07-19T10:09:03;2.30;;;2.10;;
2998;SDS011;1509;51.964;7.628;2022-07-19T10:11:30;8.10;;;2.40;;
2998;SDS011;1509;51.964;7.628;2022-07-19T10:13:56;2.50;;;2.30;;
2998;SDS011;1509;51.964;7.628;2022-07-19T10:16:37;4.70;;;3.70;;
2998;SDS011;1509;51.964;7.628;2022-07-19T10:22:04;4.03;;;2.57;;
2998;SDS011;1509;51.964;7.628;2022-07-19T10:24:50;2.80;;;2.10;;
2998;SDS011;1509;51.964;7.628;2022-07-19T10:27:37;3.33;;;2.00;;
2998;SDS011;1509;51.964;7.628;2022-07-19T10:32:40;3.73;;;2.40;;
2998;SDS011;1509;51.964;7.628;2022-07-19T10:35:17;3.60;;;2.33;;
2998;SDS011;1509;51.964;7.628;2022-07-19T10:37:53;2.67;;;2.20;;
2998;SDS011;1509;51.964;7.628;2022-07-19T10:43:17;3.00;;;1.80;;
2998;SDS011;1509;51.964;7.628;2022-07-19T10:48:34;2.57;;;2.30;;
2998;SDS011;1509;51.964;7.628;2022-07-19T10:51:00;3.23;;;2.00;;
2998;SDS011;1509;51.964;7.628;2022-07-19T10:58:49;2.70;;;2.17;;
2998;SDS011;1509;51.964;7.628;2022-07-19T11:01:16;7.03;;;2.77;;
2998;SDS011;1509;51.964;7.628;2022-07-19T11:03:44;3.30;;;2.20;;
2998;SDS011;1509;51.964;7.628;2022-07-19T11:06:24;3.00;;;2.57;;
2998;SDS011;1509;51.964;7.628;2022-07-19T11:08:52;2.20;;;2.00;;
2998;SDS011;1509;51.964;7.628;2022-07-19T11:11:21;6.43;;;1.97;;
2998;SDS011;1509;51.964;7.628;2022-07-19T11:13:50;7.93;;;2.20;;
2998;SDS011;1509;51.964;7.628;2022-07-19T11:16:17;2.00;;;1.80;;
2998;SDS011;1509;51.964;7.628;2022-07-19T11:18:43;4.53;;;2.77;;
2998;SDS011;1509;51.964;7.628;2022-07-19T11:21:10;3.17;;;1.80;;
2998;SDS011;1509;51.964;7.628;2022-07-19T11:23:40;3.27;;;2.30;;
2998;SDS011;1509;51.964;7.628;2022-07-19T11:28:40;3.60;;;2.00;;
2998;SDS011;1509;51.964;7.628;2022-07-19T11:31:14;4.63;;;2.80;;
2998;SDS011;1509;51.964;7.628;2022-07-19T11:33:42;2.30;;;1.60;;
2998;SDS011;1509;51.964;7.628;2022-07-19T11:36:09;1.93;;;1.60;;
2998;SDS011;1509;51.964;7.628;2022-07-19T11:38:43;3.50;;;2.20;;
2998;SDS011;1509;51.964;7.628;2022-07-19T11:41:22;2.73;;;1.90;;
2998;SDS011;1509;51.964;7.628;2022-07-19T11:43:57;2.90;;;2.03;;
2998;SDS011;1509;51.964;7.628;2022-07-19T11:46:28;3.97;;;1.80;;
2998;SDS011;1509;51.964;7.628;2022-07-19T11:49:03;4.43;;;2.00;;
2998;SDS011;1509;51.964;7.628;2022-07-19T11:51:31;2.37;;;1.73;;
2998;SDS011;1509;51.964;7.628;2022-07-19T11:53:58;3.60;;;1.60;;
2998;SDS011;1509;51.964;7.628;2022-07-19T11:56:26;4.27;;;1.57;;
2998;SDS011;1509;51.964;7.628;2022-07-19T11:58:54;2.77;;;1.90;;
2998;SDS011;1509;51.964;7.628;2022-07-19T12:01:25;3.33;;;2.40;;
2998;SDS011;1509;51.964;7.628;2022-07-19T12:03:54;2.53;;;2.20;;
2998;SDS011;1509;51.964;7.628;2022-07-19T12:06:33;5.33;;;1.90;;
2998;SDS011;1509;51.964;7.628;2022-07-19T12:09:04;2.53;;;1.93;;
2998;SDS011;1509;51.964;7.628;2022-07-19T12:11:36;2.47;;;2.00;;
2998;SDS011;1509;51.964;7.628;2022-07-19T12:14:15;3.37;;;2.10;;
2998;SDS011;1509;51.964;7.628;2022-07-19T12:16:44;2.40;;;1.90;;
2998;SDS011;1509;51.964;7.628;2022-07-19T12:19:11;3.80;;;2.20;;
2998;SDS011;1509;51.964;7.628;2022-07-19T12:21:40;4.03;;;2.27;;
2998;SDS011;1509;51.964;7.628;2022-07-19T12:24:25;2.33;;;2.00;;
2998;SDS011;1509;51.964;7.628;2022-07-19T12:29:24;2.60;;;2.13;;
2998;SDS011;1509;51.964;7.628;2022-07-19T12:31:52;3.17;;;2.20;;
2998;SDS011;1509;51.964;7.628;2022-07-19T12:34:22;4.93;;;2.43;;
2998;SDS011;1509;51.964;7.628;2022-07-19T12:36:48;2.53;;;2.10;;
2998;SDS011;1509;51.964;7.628;2022-07-19T12:39:20;2.37;;;2.13;;
2998;SDS011;1509;51.964;7.628;2022-07-19T12:42:07;3.20;;;2.10;;
2998;SDS011;1509;51.964;7.628;2022-07-19T12:44:34;3.43;;;2.50;;
2998;SDS011;1509;51.964;7.628;2022-07-19T12:47:00;5.00;;;2.10;;
2998;SDS011;1509;51.964;7.628;2022-07-19T12:49:39;2.47;;;1.80;;
2998;SDS011;1509;51.964;7.628;2022-07-19T12:52:06;3.53;;;2.00;;
2998;SDS011;1509;51.964;7.628;2022-07-19T12:54:32;2.97;;;1.97;;
2998;SDS011;1509;51.964;7.628;2022-07-19T12:56:58;3.67;;;2.07;;
2998;SDS011;1509;51.964;7.628;2022-07-19T12:59:23;2.80;;;2.20;;
2998;SDS011;1509;51.964;7.628;2022-07-19T13:02:04;7.47;;;2.90;;
2998;SDS011;1509;51.964;7.628;2022-07-19T13:04:33;3.50;;;2.27;;
2998;SDS011;1509;51.964;7.628;2022-07-19T13:06:59;2.10;;;1.90;;
2998;SDS011;1509;51.964;7.628;2022-07-19T13:09:25;2.53;;;2.20;;
2998;SDS011;1509;51.964;7.628;2022-07-19T13:11:50;2.80;;;1.93;;
2998;SDS011;1509;51.964;7.628;2022-07-19T13:14:16;2.83;;;2.10;;
2998;SDS011;1509;51.964;7.628;2022-07-19T13:16:42;4.60;;;2.33;;
2998;SDS011;1509;51.964;7.628;2022-07-19T13:19:07;3.50;;;2.57;;
2998;SDS011;1509;51.964;7.628;2022-07-19T13:21:34;4.80;;;2.50;;
2998;SDS011;1509;51.964;7.628;2022-07-19T13:24:00;6.93;;;2.10;;
2998;SDS011;1509;51.964;7.628;2022-07-19T13:26:25;3.30;;;2.37;;
2998;SDS011;1509;51.964;7.628;2022-07-19T13:28:51;4.63;;;2.10;;
2998;SDS011;1509;51.964;7.628;2022-07-19T13:31:17;2.60;;;2.00;;
2998;SDS011;1509;51.964;7.628;2022-07-19T13:33:42;4.80;;;2.37;;
2998;SDS011;1509;51.964;7.628;2022-07-19T13:36:08;5.50;;;2.00;;
2998;SDS011;1509;51.964;7.628;2022-07-19T13:38:34;4.70;;;2.70;;
2998;SDS011;1509;51.964;7.628;2022-07-19T13:41:03;2.93;;;2.67;;
2998;SDS011;1509;51.964;7.628;2022-07-19T13:43:31;2.87;;;2.37;;
2998;SDS011;1509;51.964;7.628;2022-07-19T13:45:57;2.80;;;2.50;;
2998;SDS011;1509;51.964;7.628;2022-07-19T13:48:24;2.80;;;2.60;;
2998;SDS011;1509;51.964;7.628;2022-07-19T13:50:50;3.10;;;2.60;;
2998;SDS011;1509;51.964;7.628;2022-07-19T13:53:16;2.70;;;2.20;;
2998;SDS011;1509;51.964;7.628;2022-07-19T13:55:41;3.20;;;2.40;;
2998;SDS011;1509;51.964;7.628;2022-07-19T13:58:07;3.10;;;2.40;;
2998;SDS011;1509;51.964;7.628;2022-07-19T14:00:33;6.93;;;3.00;;
2998;SDS011;1509;51.964;7.628;2022-07-19T14:02:58;4.83;;;2.70;;
2998;SDS011;1509;51.964;7.628;2022-07-19T14:05:24;4.10;;;2.93;;
2998;SDS011;1509;51.964;7.628;2022-07-19T14:07:50;8.33;;;3.00;;
2998;SDS011;1509;51.964;7.628;2022-07-19T14:10:15;3.33;;;2.87;;
2998;SDS011;1509;51.964;7.628;2022-07-19T14:12:41;3.47;;;3.10;;
2998;SDS011;1509;51.964;7.628;2022-07-19T14:15:07;6.47;;;3.30;;
2998;SDS011;1509;51.964;7.628;2022-07-19T14:17:32;3.03;;;2.73;;
2998;SDS011;1509;51.964;7.628;2022-07-19T14:19:58;6.93;;;3.00;;
2998;SDS011;1509;51.964;7.628;2022-07-19T14:22:24;3.27;;;2.77;;
2998;SDS011;1509;51.964;7.628;2022-07-19T14:24:49;3.43;;;2.90;;
2998;SDS011;1509;51.964;7.628;2022-07-19T14:27:15;4.57;;;2.50;;
2998;SDS011;1509;51.964;7.628;2022-07-19T14:29:41;3.70;;;2.60;;
2998;SDS011;1509;51.964;7.628;2022-07-19T14:32:07;2.90;;;2.57;;
2998;SDS011;1509;51.964;7.628;2022-07-19T14:34:33;5.97;;;3.00;;
2998;SDS011;1509;51.964;7.628;2022-07-19T14:36:59;3.50;;;3.07;;
2998;SDS011;1509;51.964;7.628;2022-07-19T14:39:24;5.17;;;3.23;;
2998;SDS011;1509;51.964;7.628;2022-07-19T14:41:50;2.77;;;2.30;;
2998;SDS011;1509;51.964;7.628;2022-07-19T14:44:15;4.37;;;2.67;;
2998;SDS011;1509;51.964;7.628;2022-07-19T14:46:41;3.00;;;2.57;;
2998;SDS011;1509;51.964;7.628;2022-07-19T14:49:07;4.20;;;2.60;;
2998;SDS011;1509;51.964;7.628;2022-07-19T14:51:32;7.83;;;3.40;;
2998;SDS011;1509;51.964;7.628;2022-07-19T14:53:59;4.47;;;2.77;;
2998;SDS011;1509;51.964;7.628;2022-07-19T14:56:27;7.97;;;3.43;;
2998;SDS011;1509;51.964;7.628;2022-07-19T14:58:53;5.40;;;2.97;;
2998;SDS011;1509;51.964;7.628;2022-07-19T15:01:18;8.20;;;2.60;;
2998;SDS011;1509;51.964;7.628;2022-07-19T15:03:44;4.03;;;2.63;;
2998;SDS011;1509;51.964;7.628;2022-07-19T15:06:09;3.90;;;2.30;;
2998;SDS011;1509;51.964;7.628;2022-07-19T15:08:35;3.73;;;2.23;;
2998;SDS011;1509;51.964;7.628;2022-07-19T15:11:01;2.37;;;2.10;;
2998;SDS011;1509;51.964;7.628;2022-07-19T15:13:26;3.90;;;2.40;;
2998;SDS011;1509;51.964;7.628;2022-07-19T15:15:52;3.17;;;2.13;;
2998;SDS011;1509;51.964;7.628;2022-07-19T15:18:18;4.17;;;2.40;;
2998;SDS011;1509;51.964;7.628;2022-07-19T15:20:43;4.23;;;2.70;;
2998;SDS011;1509;51.964;7.628;2022-07-19T15:23:09;3.13;;;2.20;;
2998;SDS011;1509;51.964;7.628;2022-07-19T15:25:36;4.20;;;2.50;;
2998;SDS011;1509;51.964;7.628;2022-07-19T15:28:01;3.83;;;3.43;;
2998;SDS011;1509;51.964;7.628;2022-07-19T15:30:27;7.47;;;2.90;;
2998;SDS011;1509;51.964;7.628;2022-07-19T15:32:53;2.87;;;2.57;;
2998;SDS011;1509;51.964;7.628;2022-07-19T15:35:18;4.40;;;2.50;;
2998;SDS011;1509;51.964;7.628;2022-07-19T15:37:44;5.50;;;2.77;;
2998;SDS011;1509;51.964;7.628;2022-07-19T15:40:10;3.17;;;2.40;;
2998;SDS011;1509;51.964;7.628;2022-07-19T15:42:46;4.67;;;2.23;;
2998;SDS011;1509;51.964;7.628;2022-07-19T15:45:13;4.00;;;2.50;;
2998;SDS011;1509;51.964;7.628;2022-07-19T15:47:40;4.53;;;2.70;;